Date,TemperatureHighF,TemperatureAvgF,TemperatureLowF,DewpointHighF,DewpointAvgF,DewpointLowF,HumidityHigh,HumidityAvg,HumidityLow,PressureMaxIn,PressureMinIn,WindSpeedMaxMPH,WindSpeedAvgMPH,GustSpeedMaxMPH,PrecipitationSumIn
2014-1-1,13.1,6.8,1.9,-2.6,-7.8,-11.8,53,51,47,30.25,30.18,17,5,17,0.23
2014-1-2,24.1,9.3,-1.1,0.4,-13.1,-23.0,49,37,19,30.40,30.18,12,2,14,0.00
2014-1-3,19.8,4.7,-10.1,4.8,-11.7,-29.2,60,46,33,30.39,29.77,15,2,15,0.00
2014-1-4,31.5,24.9,16.2,23.0,14.6,4.6,75,65,54,30.01,29.72,14,2,14,0.00
2014-1-5,19.0,6.9,-11.4,5.0,-18.0,-42.0,54,32,19,30.13,30.00,17,5,17,0.00
2014-1-6,-6.7,-15.4,-21.8,-38.0,-45.3,-50.7,19,19,19,30.22,30.14,10,2,10,0.00
2014-1-7,14.5,-6.2,-16.8,-20.3,-37.1,-46.5,30,20,19,30.24,30.16,4,0,4,0.00
2014-1-8,19.4,2.0,-8.3,-14.9,-25.8,-36.1,41,26,19,30.45,30.22,1,0,1,0.00
2014-1-9,23.5,10.9,-4.9,16.8,-5.8,-36.5,75,48,19,30.45,30.07,10,1,10,0.00
2014-1-10,35.8,31.2,23.5,33.9,27.7,16.8,93,87,75,30.07,29.45,11,2,11,0.06
2014-1-11,40.8,32.9,27.0,33.2,25.9,18.5,93,76,51,29.78,29.43,16,2,16,0.00
2014-1-12,40.6,32.6,23.9,29.4,24.2,17.4,81,71,57,29.80,29.53,11,2,11,0.00
2014-1-13,48.9,34.7,24.1,31.4,23.7,13.8,80,65,44,29.74,29.52,10,1,10,0.00
2014-1-14,35.1,25.6,15.6,30.7,15.0,1.3,86,64,53,29.93,29.55,23,4,23,0.02
2014-1-15,23.0,14.3,5.9,7.4,-6.2,-21.4,61,42,19,30.09,29.70,11,1,11,0.00
2014-1-16,34.9,23.7,9.5,28.5,10.3,-7.7,78,57,35,29.74,29.45,19,3,19,0.06
2014-1-17,17.2,9.2,0.9,1.1,-7.7,-16.1,49,46,41,29.98,29.74,9,1,9,0.00
2014-1-18,26.2,10.7,0.9,14.1,-1.7,-15.2,69,57,45,29.91,29.65,14,2,14,0.02
2014-1-19,42.4,24.6,3.6,25.3,11.8,-8.4,66,58,44,29.86,29.52,12,2,12,0.06
2014-1-20,45.7,28.9,7.7,23.7,14.2,-6.9,66,54,36,30.14,29.63,23,4,23,0.02
2014-1-21,16.2,4.0,-5.1,-6.9,-25.2,-34.0,51,25,19,30.33,30.12,20,2,20,0.00
2014-1-22,18.1,5.4,-5.3,-1.6,-17.8,-36.8,50,34,19,30.23,29.88,19,2,19,0.00
2014-1-23,17.8,-2.6,-12.8,-17.5,-34.6,-43.1,19,19,19,30.58,30.23,14,2,14,0.00
2014-1-24,29.7,10.6,-14.4,24.5,-10.4,-44.5,81,40,19,30.48,29.44,15,4,16,0.00
2014-1-25,33.1,17.2,2.3,28.1,-10.7,-30.5,83,32,19,29.87,29.42,26,4,26,0.00
2014-1-26,34.5,15.3,-1.8,16.6,-0.6,-23.1,62,49,30,29.92,29.37,30,4,30,0.00
2014-1-27,5.2,-5.7,-15.0,-22.9,-35.8,-45.0,35,21,19,30.40,29.92,13,2,13,0.00
2014-1-28,9.1,-6.4,-19.1,-25.0,-37.8,-48.4,19,19,19,30.40,30.19,6,0,6,0.00
2014-1-29,27.9,9.1,-9.2,-3.4,-18.4,-38.7,41,28,19,30.19,29.86,8,1,8,0.00
2014-1-30,31.1,20.1,14.7,20.4,3.3,-4.2,67,48,40,29.94,29.59,16,3,16,0.00
2014-1-31,17.4,11.1,5.4,0.2,-11.5,-21.0,52,37,19,30.15,29.93,5,0,5,0.00
2014-2-1,28.6,18.1,11.3,11.9,3.8,-6.1,60,53,45,30.09,29.88,11,2,11,0.00
2014-2-2,25.3,10.4,-4.2,2.6,-15.3,-36.1,56,33,19,30.29,30.09,5,0,5,0.00
2014-2-3,21.0,2.9,-10.3,-15.0,-27.8,-40.1,35,22,19,30.35,30.28,2,0,2,0.00
2014-2-4,20.1,12.4,3.2,4.1,-6.6,-23.4,61,43,27,30.36,30.11,13,2,13,0.00
2014-2-5,33.8,16.3,-1.5,8.4,-3.3,-21.7,65,45,19,30.43,30.07,17,3,17,0.00
2014-2-6,13.1,-2.4,-12.8,-21.4,-29.8,-37.6,40,26,19,30.44,30.33,6,0,6,0.00
2014-2-7,17.1,0.8,-12.8,-14.3,-26.4,-35.1,40,27,19,30.35,30.26,4,0,4,0.00
2014-2-8,17.6,9.8,3.6,0.1,-6.8,-15.6,55,46,38,30.27,30.08,6,0,6,0.00
2014-2-9,29.8,9.3,-3.6,-2.5,-15.8,-35.4,55,34,19,30.30,30.10,7,0,7,0.00
2014-2-10,19.2,-0.1,-12.8,-16.3,-32.1,-43.1,34,20,19,30.44,30.30,3,0,3,0.00
2014-2-11,14.2,-2.5,-14.3,-20.5,-34.5,-44.4,19,19,19,30.49,30.28,3,0,3,0.00
2014-2-12,20.7,10.5,-7.1,2.3,-10.8,-38.3,51,38,19,30.29,29.94,6,0,6,0.00
2014-2-13,36.9,22.5,10.8,22.6,6.3,-5.6,61,50,41,29.94,29.51,14,2,14,0.04
2014-2-14,27.5,13.3,5.0,-0.8,-10.0,-20.3,51,36,19,29.97,29.65,9,1,9,0.00
2014-2-15,16.0,8.0,-2.4,4.5,-11.1,-23.5,62,42,20,30.06,29.89,7,0,7,0.00
2014-2-16,38.7,21.6,9.7,9.8,0.6,-13.6,62,43,19,30.22,29.92,10,1,10,0.00
2014-2-17,28.8,23.3,18.5,20.6,13.0,4.9,72,65,55,30.17,29.68,16,4,16,0.02
2014-2-18,48.6,33.2,16.5,27.4,18.9,6.7,71,56,40,29.89,29.60,10,2,10,0.15
2014-2-19,45.5,35.2,27.9,23.5,20.5,17.2,67,56,36,29.94,29.66,6,1,6,0.00
2014-2-20,41.4,35.5,33.4,39.7,29.6,22.5,94,79,63,29.84,29.11,19,5,26,0.22
2014-2-21,33.4,25.3,18.5,25.3,6.7,-10.0,73,47,19,29.82,29.30,20,5,20,0.00
2014-2-22,36.1,22.4,13.6,3.8,-2.4,-12.0,49,35,19,30.08,29.82,6,1,6,0.00
2014-2-23,30.0,16.9,9.5,-5.8,-10.3,-18.8,42,30,19,30.23,30.08,9,2,9,0.00
2014-2-24,24.6,14.1,4.1,-3.5,-10.4,-18.2,48,34,19,30.29,30.20,10,1,10,0.00
2014-2-25,23.9,13.2,1.4,-1.9,-12.3,-31.2,51,33,19,30.24,30.16,13,2,13,0.00
2014-2-26,16.0,7.0,-9.6,-3.1,-22.9,-40.6,43,24,19,30.26,29.66,20,2,20,0.00
2014-2-27,16.2,6.0,-1.8,-18.8,-27.3,-33.9,19,19,19,30.13,29.70,20,1,20,0.00
2014-2-28,29.7,14.1,-3.5,10.4,-13.1,-35.4,56,30,19,30.12,29.88,14,2,14,0.00
2014-3-1,26.8,16.3,6.4,11.6,-2.5,-15.8,62,45,19,30.34,29.98,12,2,12,0.00
2014-3-2,19.0,5.3,-6.2,-9.0,-24.1,-37.7,48,25,19,30.43,30.30,8,1,8,0.00
2014-3-3,24.1,3.9,-11.7,-12.2,-27.7,-42.2,38,21,19,30.47,30.29,7,0,7,0.00
2014-3-4,31.5,17.5,5.7,1.4,-6.8,-15.0,50,35,19,30.30,30.11,6,1,6,0.06
2014-3-5,32.7,19.7,10.0,9.9,-0.8,-13.0,60,43,19,30.39,30.19,11,2,11,0.02
2014-3-6,31.8,17.3,4.5,4.4,-2.9,-9.9,53,42,19,30.36,30.00,6,1,6,0.02
2014-3-7,48.4,30.9,12.6,25.9,16.2,-1.8,68,55,38,30.00,29.83,6,1,6,0.00
2014-3-8,40.6,32.8,22.3,26.1,18.4,6.4,72,56,38,30.22,29.97,11,2,11,0.00
2014-3-9,42.4,29.4,13.8,27.9,15.9,1.7,70,57,42,30.21,29.76,15,2,15,0.00
2014-3-10,53.6,43.9,36.1,33.3,29.6,26.6,70,58,41,29.77,29.65,6,0,6,0.00
2014-3-11,48.9,39.8,35.4,31.6,28.7,26.9,75,65,49,29.78,29.63,18,4,18,0.00
2014-3-12,44.8,32.5,19.9,28.4,16.1,2.9,75,53,22,30.07,29.72,14,2,60,0.08
2014-3-13,43.0,29.0,14.7,29.4,15.9,0.0,74,58,47,30.07,29.76,13,2,13,0.00
2014-3-14,53.2,41.2,34.5,30.8,27.2,24.6,75,59,38,29.86,29.57,17,3,17,0.02
2014-3-15,44.1,35.2,29.1,26.3,19.3,14.9,71,53,36,30.20,29.86,12,3,12,0.00
2014-3-16,32.4,23.8,16.5,20.6,0.1,-15.8,69,39,19,30.35,30.14,21,5,21,0.00
2014-3-17,38.8,26.5,14.4,19.6,4.7,-7.0,61,42,19,30.14,29.70,14,2,14,0.00
2014-3-18,49.5,39.0,30.4,35.4,27.4,18.1,74,63,51,29.79,29.60,13,4,13,0.00
2014-3-19,39.7,36.5,32.9,35.0,28.4,19.0,84,73,56,30.00,29.52,15,3,15,0.06
2014-3-20,52.5,39.6,29.7,30.0,21.7,7.5,75,52,19,30.04,29.95,7,0,7,0.00
2014-3-21,57.7,42.9,32.4,38.6,27.6,17.1,66,55,47,29.96,29.66,17,4,17,0.00
2014-3-22,43.0,34.2,22.8,23.8,10.3,-13.3,61,40,19,30.33,29.91,15,3,15,0.00
2014-3-23,36.9,24.8,15.3,-1.6,-8.3,-16.0,40,23,19,30.44,30.32,14,2,14,0.00
2014-3-24,39.4,27.7,18.1,19.7,2.4,-10.2,68,36,19,30.35,30.05,9,1,9,0.00
2014-3-25,31.6,23.7,16.5,16.3,-4.6,-18.0,66,31,19,30.23,30.03,14,3,14,0.00
2014-3-26,39.4,27.6,14.2,17.0,1.9,-13.3,51,35,19,30.25,29.88,16,4,16,0.00
2014-3-27,50.7,40.8,34.0,46.9,34.0,16.5,87,77,43,29.88,29.37,20,4,20,0.13
2014-3-28,48.2,38.6,35.4,42.9,29.7,25.3,88,71,58,30.15,29.39,16,2,16,0.02
2014-3-29,54.9,42.2,33.3,28.1,23.7,7.4,73,51,19,30.22,30.14,14,2,14,0.00
2014-3-30,60.8,44.0,28.4,35.7,25.8,12.8,64,50,35,30.22,29.95,15,3,15,0.00
2014-3-31,66.4,52.9,41.4,41.8,35.8,30.6,69,54,35,29.98,29.60,22,6,22,0.00
2014-4-1,52.2,37.4,25.2,39.5,20.0,9.9,62,50,34,30.06,29.67,16,5,16,0.00
2014-4-2,57.9,42.6,29.7,29.4,24.9,19.6,71,52,26,30.14,29.97,12,3,12,0.02
2014-4-3,44.8,39.5,35.8,34.7,30.8,23.6,84,71,58,29.99,29.59,20,5,20,0.02
2014-4-4,41.9,37.6,35.6,40.8,29.0,21.3,96,72,52,30.04,29.44,17,5,17,0.00
2014-4-5,55.8,42.1,27.3,32.5,22.1,16.8,74,49,22,30.19,30.04,7,1,7,0.00
2014-4-6,58.1,44.7,31.5,33.9,27.7,21.4,72,53,34,30.10,29.91,14,1,14,0.00
2014-4-7,70.0,52.8,40.1,39.5,33.0,27.5,65,49,24,29.91,29.63,12,2,12,0.00
2014-4-8,66.4,51.8,39.0,38.7,30.5,17.3,78,48,19,29.95,29.68,14,2,14,0.00
2014-4-9,64.8,50.6,34.5,32.3,25.0,18.8,64,40,19,30.02,29.78,16,2,16,0.00
2014-4-10,49.1,45.6,44.2,32.3,31.6,31.0,61,58,51,29.78,29.64,7,1,7,0.00
2014-4-11,71.8,56.6,39.2,29.6,24.1,17.9,55,31,19,30.03,29.91,8,1,8,0.00
2014-4-12,80.1,65.1,50.4,52.5,42.7,25.3,62,45,33,29.96,29.60,10,3,10,0.00
2014-4-13,65.1,57.7,48.6,60.1,52.2,46.1,96,82,65,29.73,29.40,11,2,11,1.34
2014-4-14,46.8,33.3,28.9,44.6,24.4,19.8,92,70,62,30.02,29.39,14,2,14,0.14
2014-4-15,44.2,32.9,21.6,21.7,10.8,-2.1,74,45,19,30.15,30.01,8,0,8,0.02
2014-4-16,55.0,42.3,29.3,29.2,22.8,12.4,62,47,28,30.18,29.97,19,5,19,0.00
2014-4-17,61.0,48.8,39.4,36.2,32.3,27.9,75,54,35,30.25,29.99,12,2,12,0.00
2014-4-18,67.3,49.7,33.6,35.5,28.4,18.5,78,50,19,30.34,30.25,10,2,10,0.00
2014-4-19,70.9,52.8,34.0,31.2,26.9,22.6,66,42,19,30.32,30.13,11,3,11,0.00
2014-4-20,83.7,65.9,49.3,42.1,37.5,31.2,62,39,19,30.16,29.97,11,2,11,0.00
2014-4-21,68.5,62.4,55.8,59.5,48.9,40.1,85,62,46,29.98,29.82,7,1,7,0.26
2014-4-22,67.1,54.1,43.2,42.5,28.0,16.0,63,40,19,30.07,29.86,15,3,15,0.00
2014-4-23,57.0,46.4,34.5,36.0,27.1,21.3,65,49,26,30.16,29.96,13,2,13,0.07
2014-4-24,61.5,50.2,39.0,49.7,39.8,30.0,88,68,37,30.01,29.63,18,4,18,0.40
2014-4-25,72.1,57.8,43.0,50.1,38.7,25.2,89,56,19,29.84,29.66,13,2,13,0.02
2014-4-26,70.2,55.4,41.9,42.8,32.8,23.2,68,46,19,29.96,29.83,14,4,14,0.00
2014-4-27,63.0,51.2,41.2,46.7,37.8,27.0,87,62,38,29.98,29.70,24,6,24,0.72
2014-4-28,53.8,50.4,45.1,49.7,45.2,39.4,91,82,66,29.71,29.46,22,6,22,0.41
2014-4-29,58.3,51.8,48.9,53.2,47.6,43.3,96,86,63,29.62,29.43,10,2,10,0.28
2014-4-30,49.6,43.8,39.4,47.8,38.9,34.8,96,83,68,29.75,29.62,8,1,8,0.02
2014-5-1,48.4,44.2,38.7,43.0,39.9,35.7,93,85,76,29.83,29.65,12,2,12,0.14
2014-5-2,56.3,51.1,45.5,44.1,41.9,38.3,90,72,53,29.83,29.65,11,2,11,0.00
2014-5-3,70.0,57.8,45.1,42.0,35.7,24.9,80,49,19,29.91,29.66,20,3,20,0.00
2014-5-4,60.8,53.9,48.4,36.0,29.8,16.3,54,41,19,30.08,29.91,11,2,11,0.02
2014-5-5,68.2,54.5,44.4,34.6,29.5,22.8,60,40,19,30.03,29.89,16,4,16,0.00
2014-5-6,71.2,55.8,39.4,37.7,32.4,25.3,71,45,19,29.98,29.79,20,5,20,0.00
2014-5-7,82.9,65.4,54.3,59.6,46.5,36.1,68,51,40,29.81,29.69,15,3,15,0.00
2014-5-8,87.1,72.7,63.5,62.4,58.2,54.0,83,63,34,29.81,29.71,26,3,26,0.22
2014-5-9,68.0,62.6,52.7,63.8,49.0,38.9,96,63,42,29.86,29.64,16,3,16,0.03
2014-5-10,78.3,64.3,48.4,47.0,41.2,34.8,76,47,24,29.94,29.82,7,1,7,0.00
2014-5-11,82.4,68.8,58.1,62.9,53.1,40.8,78,58,43,29.91,29.76,10,2,10,0.10
2014-5-12,86.5,73.2,64.8,68.2,63.4,54.9,91,74,44,29.88,29.75,13,2,20,0.83
2014-5-13,65.7,55.2,50.2,63.9,47.8,40.1,96,77,63,30.17,29.77,11,2,11,0.09
2014-5-14,59.2,52.5,43.9,40.8,37.8,34.1,75,59,41,30.19,30.02,13,2,13,0.00
2014-5-15,62.1,51.3,45.9,42.0,38.6,33.2,84,63,39,30.03,29.94,11,1,11,0.32
2014-5-16,52.7,45.4,35.2,41.8,36.9,30.8,88,73,53,30.08,29.97,7,0,7,0.51
2014-5-17,62.6,51.5,39.4,38.7,31.8,23.4,79,51,25,30.14,30.06,7,0,7,0.00
2014-5-18,73.8,58.2,42.3,40.6,34.3,25.5,70,45,19,30.21,30.11,7,0,7,0.00
2014-5-19,70.5,60.0,50.7,52.3,45.2,38.6,83,59,40,30.17,29.85,20,3,20,0.08
2014-5-20,87.6,64.0,60.3,64.5,55.1,52.0,85,74,38,29.87,29.79,5,1,5,0.41
2014-5-21,89.1,77.9,64.0,66.4,52.4,42.3,89,46,25,30.01,29.81,15,2,15,0.00
2014-5-22,75.4,65.6,55.0,48.3,43.4,37.3,67,46,28,30.15,30.01,10,1,10,0.00
2014-5-23,78.8,66.5,54.0,47.8,42.1,36.6,67,44,23,30.19,30.11,11,1,11,0.00
2014-5-24,77.7,66.4,52.5,45.9,38.8,29.3,68,41,19,30.22,30.09,7,0,7,0.00
2014-5-25,86.0,72.4,57.2,52.5,45.0,38.0,60,40,19,30.12,29.96,9,0,9,0.00
2014-5-26,87.8,73.4,65.8,65.7,61.1,53.0,84,67,42,30.03,29.91,7,0,7,0.39
2014-5-27,84.9,75.5,67.8,67.6,63.7,58.5,92,69,46,29.93,29.85,7,0,7,0.04
2014-5-28,83.7,70.3,62.2,63.2,58.6,47.6,88,68,46,30.04,29.90,15,2,15,0.00
2014-5-29,85.5,71.1,57.4,62.6,53.8,44.6,73,56,41,30.10,30.01,12,2,12,0.00
2014-5-30,90.3,75.0,59.0,60.1,50.8,43.0,75,46,25,30.15,30.07,11,2,11,0.00
2014-5-31,90.5,77.9,63.0,53.2,50.3,42.2,61,40,19,30.15,29.99,7,1,7,0.00
2014-6-1,89.2,79.0,71.1,66.2,59.1,49.7,79,52,38,30.04,29.81,16,2,16,0.26
2014-6-2,81.9,74.7,68.4,67.9,63.8,59.9,86,70,49,29.85,29.75,10,1,10,0.29
2014-6-3,83.8,73.4,63.5,60.6,51.5,45.3,70,48,28,29.99,29.84,9,1,9,0.00
2014-6-4,71.8,66.3,61.3,60.8,57.0,53.2,88,73,54,29.92,29.73,13,2,15,0.29
2014-6-5,81.1,69.3,56.3,59.0,44.8,31.4,87,48,19,29.99,29.89,6,1,6,0.00
2014-6-6,84.9,73.2,59.9,51.2,46.2,41.3,53,39,25,29.99,29.91,5,0,5,0.00
2014-6-7,81.5,71.2,63.0,59.5,51.3,41.4,82,52,33,29.97,29.83,10,1,10,0.14
2014-6-8,70.5,65.5,60.4,59.8,55.1,39.5,85,70,46,30.04,29.88,10,2,10,0.00
2014-6-9,84.2,69.4,54.3,54.3,46.6,39.3,63,46,28,30.02,29.86,8,1,8,0.00
2014-6-10,68.2,63.8,60.8,58.6,52.4,44.3,89,67,51,29.91,29.77,14,3,14,0.26
2014-6-11,73.2,65.9,60.8,60.8,58.3,56.5,92,78,57,29.78,29.71,12,4,12,0.15
2014-6-12,78.6,67.8,60.3,64.3,53.3,42.0,91,63,37,29.91,29.74,13,1,13,0.02
2014-6-13,79.5,66.2,52.7,45.0,38.6,30.6,68,40,19,30.02,29.91,15,2,15,0.00
2014-6-14,79.7,68.5,56.3,48.3,42.0,36.9,62,41,24,30.06,29.88,9,1,10,0.00
2014-6-15,86.0,73.4,62.8,61.5,52.9,43.8,62,49,37,29.93,29.71,16,2,16,0.00
2014-6-16,89.1,77.6,64.0,68.0,60.6,55.7,80,58,35,30.04,29.78,8,1,8,0.00
2014-6-17,87.6,78.1,67.5,70.8,65.5,60.5,90,67,45,29.88,29.73,13,1,13,1.00
2014-6-18,79.7,74.9,68.9,69.7,66.5,62.1,84,75,63,29.98,29.83,13,1,13,0.49
2014-6-19,82.6,73.6,65.8,68.6,66.0,61.2,96,78,61,30.05,29.93,10,2,10,2.32
2014-6-20,87.1,76.4,69.3,72.4,65.7,59.4,96,73,43,29.97,29.91,11,1,11,0.04
2014-6-21,84.6,74.9,68.4,70.9,64.8,61.4,87,72,54,29.95,29.84,8,1,8,0.02
2014-6-22,86.4,74.2,65.8,68.3,64.1,59.8,90,73,44,29.91,29.79,11,0,11,0.08
2014-6-23,83.3,73.9,68.2,68.9,65.6,63.6,96,77,54,29.86,29.80,7,0,7,0.00
2014-6-24,89.2,78.3,69.6,68.2,62.3,56.2,88,61,34,29.92,29.84,10,1,11,0.00
2014-6-25,89.8,75.1,68.9,64.5,61.6,55.9,78,64,32,30.02,29.90,7,0,7,0.04
2014-6-26,84.9,73.6,64.0,65.6,63.0,60.3,90,71,48,30.06,29.93,7,1,7,0.00
2014-6-27,86.9,78.0,68.5,67.7,65.2,61.8,84,66,48,29.98,29.88,8,1,8,0.00
2014-6-28,85.3,77.6,69.8,70.1,67.7,64.5,89,72,57,29.97,29.84,8,1,8,0.00
2014-6-29,84.0,75.6,67.5,72.9,67.4,63.1,96,77,57,29.97,29.78,11,0,11,1.37
2014-6-30,87.1,73.3,65.3,74.3,67.8,62.7,96,84,56,29.87,29.61,21,1,21,2.26
2014-7-1,81.5,73.2,64.0,65.5,59.9,55.0,96,65,48,29.81,29.64,114,2,114,0.00
2014-7-2,68.9,64.0,59.0,56.3,54.1,51.6,85,71,60,30.04,29.81,9,1,9,0.02
2014-7-3,80.1,67.7,57.0,58.7,50.0,40.3,90,58,26,30.20,30.03,9,1,9,0.02
2014-7-4,82.0,70.2,57.9,54.3,49.8,46.1,75,51,30,30.29,30.19,4,0,4,0.00
2014-7-5,72.9,66.8,60.1,59.3,54.9,51.1,78,66,51,30.23,30.01,8,0,8,0.00
2014-7-6,86.5,74.8,63.0,71.4,65.6,59.1,90,74,55,30.01,29.71,6,0,6,0.04
2014-7-7,88.7,79.4,72.0,71.2,64.4,56.1,92,63,35,29.78,29.63,7,0,7,0.00
2014-7-8,84.2,74.4,67.8,67.2,60.1,52.1,86,63,36,29.82,29.62,14,2,14,0.43
2014-7-9,81.9,73.5,62.1,57.5,53.0,48.0,77,50,34,30.04,29.91,9,2,9,0.04
2014-7-10,82.8,71.5,62.1,58.4,54.4,49.7,69,56,39,30.16,30.04,6,0,6,0.00
2014-7-11,78.6,71.0,63.0,62.5,57.9,54.9,75,64,46,30.17,30.03,6,0,6,0.00
2014-7-12,82.6,75.2,70.5,72.5,67.6,62.3,89,78,68,30.06,29.81,9,0,9,0.37
2014-7-13,86.4,79.0,65.3,68.1,64.6,59.5,96,63,46,29.96,29.88,114,11,114,0.00
2014-7-14,81.5,74.7,66.9,59.3,53.4,45.2,74,49,31,29.88,29.83,11,3,11,0.00
2014-7-15,69.6,66.1,60.3,53.4,51.7,50.0,71,60,51,29.99,29.94,9,1,9,0.00
2014-7-16,77.0,67.1,55.8,55.8,49.9,46.0,82,57,34,30.03,29.97,8,1,8,0.00
2014-7-17,81.0,69.4,56.8,55.7,51.6,48.6,78,55,36,30.09,30.01,6,0,6,0.00
2014-7-18,81.1,70.9,61.2,59.7,54.7,52.1,76,58,38,30.14,30.05,4,0,4,0.00
2014-7-19,80.2,70.8,62.1,57.8,55.3,51.6,76,60,38,30.08,29.99,4,0,4,0.00
2014-7-20,81.5,71.8,62.4,61.4,58.3,54.1,78,63,46,30.04,29.97,6,0,6,0.00
2014-7-21,87.3,75.7,64.6,67.1,63.5,59.3,84,67,46,30.06,29.98,7,0,7,0.00
2014-7-22,93.0,81.0,70.5,75.5,69.7,64.8,86,70,52,30.01,29.90,9,1,9,0.00
2014-7-23,82.4,74.1,64.6,65.5,56.2,49.8,77,56,34,30.17,30.00,14,3,14,0.00
2014-7-24,80.1,68.9,57.9,56.3,51.2,47.9,72,55,37,30.17,29.98,6,0,6,0.00
2014-7-25,70.7,65.1,59.5,61.4,57.6,51.1,86,77,68,30.06,29.76,21,1,21,0.20
2014-7-26,84.6,75.3,66.6,69.5,64.7,60.0,84,70,58,29.88,29.79,10,1,10,0.00
2014-7-27,81.3,74.5,67.5,70.2,60.2,51.6,93,64,38,29.94,29.77,17,2,17,0.00
2014-7-28,74.8,67.4,58.3,57.6,50.0,44.5,77,56,35,30.12,29.94,20,2,20,0.00
2014-7-29,81.0,62.0,57.6,59.8,51.6,49.5,78,69,41,30.07,29.99,6,0,6,0.11
2014-7-30,84.0,71.0,61.7,59.6,55.2,51.0,81,59,38,30.06,29.99,8,1,8,0.02
2014-7-31,84.2,72.3,61.5,61.3,56.0,51.8,79,58,37,30.04,30.00,8,0,8,0.00
2014-8-1,86.2,73.9,63.3,63.4,57.6,52.0,83,59,35,30.12,30.02,11,0,11,0.00
2014-8-2,87.3,73.6,61.3,62.8,58.8,53.5,79,62,38,30.15,30.06,5,0,5,0.00
2014-8-3,86.7,76.0,66.0,65.5,60.9,56.4,85,62,37,30.14,30.04,6,0,6,0.02
2014-8-4,86.5,74.4,66.6,64.9,61.8,59.1,87,67,40,30.10,29.98,17,1,17,1.14
2014-8-5,68.2,67.8,67.6,64.8,64.3,63.6,90,89,87,30.04,29.99,5,0,5,0.00
2014-8-6,81.5,74.2,64.6,63.2,57.4,52.8,87,57,43,30.08,30.01,7,1,7,0.00
2014-8-7,81.9,71.5,61.7,58.5,54.6,48.1,68,56,41,30.07,29.99,12,2,12,0.00
2014-8-8,84.6,72.0,60.8,60.2,56.0,53.4,82,59,35,30.06,30.00,11,2,11,0.00
2014-8-9,85.1,73.0,62.4,61.6,56.6,54.2,82,58,37,30.09,30.02,7,2,12,0.00
2014-8-10,86.4,73.3,61.7,62.6,57.5,53.4,80,60,37,30.05,29.96,8,1,8,0.00
2014-8-11,84.9,74.0,66.2,64.2,59.9,55.3,77,62,46,29.96,29.82,17,2,17,0.00
2014-8-12,77.0,68.1,60.4,56.8,51.2,46.5,79,57,36,29.99,29.84,20,4,20,0.00
2014-8-13,85.5,71.8,57.9,57.8,54.2,48.5,78,56,36,30.05,29.98,15,1,15,0.00
2014-8-14,78.3,68.4,57.7,56.9,50.7,45.7,79,55,34,30.11,30.02,7,1,7,0.00
2014-8-15,74.8,64.7,55.2,57.6,51.0,46.5,75,62,50,30.07,29.95,5,0,5,0.00
2014-8-16,81.1,70.3,62.2,67.4,62.9,58.3,90,78,57,29.91,29.86,2,0,2,0.00
2014-8-17,81.1,72.4,63.7,68.2,63.0,59.3,91,73,56,29.97,29.89,10,2,10,0.00
2014-8-18,83.3,73.0,63.1,66.6,64.0,60.3,96,75,53,29.93,29.75,8,0,8,0.00
2014-8-19,87.4,76.9,70.3,72.2,64.4,58.4,96,68,42,29.79,29.68,10,1,10,0.00
2014-8-20,84.6,75.2,65.7,66.4,63.1,59.4,83,67,48,29.93,29.79,7,0,7,0.00
2014-8-21,78.1,73.3,71.2,73.8,69.2,64.3,96,87,77,29.94,29.84,6,1,6,0.31
2014-8-22,85.3,78.4,73.2,74.7,72.5,68.3,96,83,61,29.96,29.84,6,0,6,0.00
2014-8-23,79.0,75.1,71.2,74.9,71.2,67.2,96,88,77,30.01,29.90,6,0,6,0.26
2014-8-24,89.2,78.8,69.4,76.2,71.4,66.7,96,79,58,29.97,29.90,6,1,6,0.00
2014-8-25,85.6,77.8,72.9,81.8,71.0,63.6,96,80,57,30.03,29.92,14,1,14,0.00
2014-8-26,80.1,73.9,67.6,73.4,64.8,60.0,96,75,52,30.13,29.99,20,1,20,0.86
2014-8-27,80.6,72.3,64.9,62.0,58.4,51.8,82,63,38,30.15,30.05,8,1,8,0.00
2014-8-28,75.0,69.2,64.4,65.3,61.2,58.0,90,77,57,30.11,29.96,7,1,7,0.08
2014-8-29,86.4,75.7,67.6,71.8,67.7,63.1,96,78,55,29.96,29.80,7,1,7,0.00
2014-8-30,80.4,73.4,68.9,69.5,65.6,61.6,96,78,56,29.89,29.78,10,0,10,0.06
2014-8-31,86.2,75.5,65.1,69.9,65.2,61.8,96,72,46,29.92,29.78,6,0,6,0.00
2014-9-1,82.6,73.8,66.9,69.0,63.9,60.2,90,73,50,29.86,29.67,9,1,9,0.04
2014-9-2,79.7,71.5,62.2,65.3,59.0,55.5,90,67,47,29.99,29.83,12,1,12,0.13
2014-9-3,84.0,72.2,59.4,64.7,59.8,53.6,86,67,44,30.01,29.87,7,1,7,0.14
2014-9-4,85.6,76.1,70.0,73.2,68.7,64.3,92,79,58,29.96,29.82,12,2,12,0.37
2014-9-5,81.3,72.9,61.5,72.9,64.6,50.6,90,76,48,30.11,29.88,12,1,12,0.22
2014-9-6,73.6,64.7,55.8,54.3,50.6,46.9,86,63,40,30.19,30.09,9,1,9,0.00
2014-9-7,78.4,67.3,55.2,59.3,50.8,45.4,84,58,33,30.19,30.08,5,0,5,0.00
2014-9-8,75.4,66.8,58.3,54.7,51.6,48.8,74,60,41,30.11,29.92,7,0,7,0.00
2014-9-9,79.7,69.4,62.4,65.7,61.2,54.5,96,76,51,29.98,29.78,6,0,6,0.55
2014-9-10,76.1,68.3,54.9,74.2,62.5,45.7,96,83,63,29.92,29.50,14,3,17,0.90
2014-9-11,55.8,52.5,49.1,45.8,42.6,40.4,77,69,61,30.28,29.92,10,2,10,0.00
2014-9-12,53.2,49.3,42.1,45.9,43.1,38.0,86,79,65,30.34,30.26,12,1,12,0.12
2014-9-13,58.5,48.8,39.6,45.3,38.0,34.3,93,69,41,30.37,30.25,11,1,11,0.00
2014-9-14,65.8,54.2,42.1,44.9,40.2,35.3,80,61,39,30.29,30.11,6,0,6,0.00
2014-9-15,64.9,55.4,49.6,53.5,47.8,43.3,85,76,60,30.18,30.05,13,1,13,0.06
2014-9-16,64.8,54.4,43.9,47.5,41.6,37.8,87,66,38,30.21,30.06,6,0,6,0.02
2014-9-17,69.4,58.9,48.7,50.0,46.0,40.5,73,63,47,30.06,29.94,2,0,2,0.00
2014-9-18,71.1,63.1,50.7,52.3,48.8,45.3,85,62,44,30.13,30.01,6,1,6,0.00
2014-9-19,74.3,63.4,53.4,54.9,50.6,45.7,92,67,37,30.11,29.87,9,1,9,0.00
2014-9-20,76.5,69.3,60.4,66.4,61.4,52.4,92,77,61,29.89,29.72,10,0,10,0.21
2014-9-21,66.6,59.7,53.4,60.2,49.3,43.3,88,70,47,30.15,29.76,15,2,15,0.00
2014-9-22,68.2,56.5,44.6,45.3,42.1,38.8,82,61,39,30.29,30.14,5,0,5,0.00
2014-9-23,73.6,61.6,50.4,48.4,44.0,41.5,76,55,32,30.31,30.21,4,0,4,0.00
2014-9-24,72.9,63.7,55.0,51.3,46.9,44.6,74,56,39,30.30,30.19,6,0,6,0.00
2014-9-25,77.9,67.5,59.0,51.9,45.8,40.3,67,48,27,30.26,30.16,6,0,6,0.00
2014-9-26,80.8,69.0,58.1,54.1,51.2,45.6,75,55,37,30.23,30.14,5,0,5,0.00
2014-9-27,82.9,70.7,61.0,55.2,51.0,47.7,72,52,30,30.22,30.10,6,0,6,0.00
2014-9-28,82.8,69.8,57.6,58.7,51.1,48.5,76,54,32,30.15,30.03,7,0,7,0.00
2014-9-29,82.6,68.9,56.5,60.1,52.5,48.1,76,58,35,30.04,29.91,12,1,12,0.00
2014-9-30,60.1,54.7,50.5,48.3,44.1,41.7,78,68,52,30.05,29.95,11,2,11,0.00
2014-10-1,74.3,61.8,50.2,56.3,50.4,43.2,86,68,50,29.98,29.80,8,1,8,0.00
2014-10-2,71.4,66.9,64.2,64.3,60.8,54.3,96,81,69,29.84,29.59,7,0,7,0.02
2014-10-3,64.2,52.2,41.5,63.1,42.3,23.0,96,71,45,29.83,29.55,17,3,17,0.98
2014-10-4,50.7,41.9,35.2,36.9,30.2,23.0,87,64,46,29.78,29.68,14,2,14,0.06
2014-10-5,55.8,46.3,34.7,41.2,32.7,28.1,83,61,38,29.73,29.59,8,0,8,0.00
2014-10-6,59.2,51.8,45.0,46.2,37.1,28.2,85,60,31,29.63,29.54,14,1,14,0.00
2014-10-7,66.9,53.9,43.5,50.2,40.9,34.7,88,64,39,29.86,29.59,10,1,10,0.00
2014-10-8,68.4,54.9,42.4,41.4,33.5,23.1,77,49,19,30.03,29.86,9,1,9,0.00
2014-10-9,64.0,55.8,46.0,37.5,30.8,18.4,60,41,19,30.12,30.02,7,1,8,0.00
2014-10-10,59.7,49.7,38.1,37.5,31.8,29.0,75,52,34,30.18,30.11,11,1,11,0.00
2014-10-11,63.3,49.2,36.3,40.4,29.4,23.8,75,50,23,30.23,30.10,6,0,6,0.00
2014-10-12,61.7,50.8,40.5,52.6,39.6,28.6,92,67,45,30.10,29.82,8,1,8,0.06
2014-10-13,65.8,59.0,54.5,64.6,57.5,52.4,96,95,89,29.84,29.44,13,1,13,2.00
2014-10-14,64.0,57.5,52.5,62.7,55.7,49.0,96,94,88,29.70,29.43,17,3,17,0.73
2014-10-15,56.3,52.9,50.7,49.5,48.4,46.4,93,85,73,29.86,29.69,10,2,10,0.02
2014-10-16,67.6,55.8,50.5,51.7,48.8,44.6,96,79,51,29.86,29.59,7,0,7,0.00
2014-10-17,56.8,52.7,48.0,46.9,44.6,41.8,84,74,62,29.92,29.57,15,2,15,0.00
2014-10-18,57.6,48.4,39.4,43.5,38.2,31.6,83,68,46,30.18,29.93,11,1,11,0.00
2014-10-19,60.1,47.3,35.2,44.6,36.8,30.5,90,69,45,30.17,29.85,10,0,10,0.00
2014-10-20,67.6,54.4,44.2,46.7,40.8,37.4,88,63,37,30.01,29.79,16,2,16,0.00
2014-10-21,58.6,48.0,39.7,43.2,35.5,31.8,82,64,42,30.24,30.00,13,1,13,0.00
2014-10-22,61.9,47.1,33.6,42.7,32.5,28.1,86,60,32,30.32,30.17,9,1,9,0.00
2014-10-23,60.8,49.1,38.1,47.7,39.7,31.0,80,71,49,30.18,30.00,10,1,10,0.00
2014-10-24,66.4,56.4,51.3,53.9,48.7,43.8,96,77,47,30.04,29.88,6,0,6,0.00
2014-10-25,71.2,61.3,49.3,58.0,40.0,20.0,96,55,19,30.00,29.89,15,2,15,0.00
2014-10-26,67.3,54.3,39.0,33.7,25.4,16.4,63,36,19,30.02,29.74,10,1,10,0.00
2014-10-27,77.9,66.4,56.3,58.7,50.6,28.4,83,58,35,29.74,29.52,11,3,11,0.00
2014-10-28,63.0,52.7,45.1,50.8,35.5,29.8,67,53,38,29.96,29.63,20,4,20,0.00
2014-10-29,54.5,45.1,36.3,32.1,28.6,25.2,65,53,39,30.11,29.95,19,2,19,0.00
2014-10-30,52.7,43.4,34.2,38.4,31.9,24.8,78,65,48,30.11,30.02,7,0,7,0.00
2014-10-31,47.8,38.5,28.8,37.1,15.1,-1.0,69,41,19,30.40,30.05,23,5,23,0.00
2014-11-1,55.0,36.3,23.2,24.5,16.0,4.1,61,45,19,30.45,30.32,10,1,10,0.00
2014-11-2,54.3,40.2,26.1,28.3,17.5,5.1,75,45,19,30.34,30.08,14,3,14,0.00
2014-11-3,65.3,52.6,38.7,55.3,34.5,21.8,89,51,38,30.08,29.86,11,3,12,0.15
2014-11-4,58.6,50.2,43.5,57.5,41.8,33.7,96,74,52,30.02,29.82,14,3,14,0.12
2014-11-5,56.7,51.1,34.7,41.9,37.1,28.9,84,60,41,30.09,29.81,12,2,12,0.00
2014-11-6,50.4,42.3,36.3,41.7,30.0,22.1,74,62,47,30.22,29.79,16,4,26,0.00
2014-11-7,43.0,37.5,29.1,31.2,24.6,18.2,68,60,50,30.21,29.71,11,2,11,0.00
2014-11-8,52.2,43.1,35.2,37.0,26.2,18.4,76,53,30,29.96,29.69,19,4,19,0.00
2014-11-9,54.3,44.0,34.7,32.8,28.2,21.8,70,55,39,29.92,29.71,14,2,14,0.00
2014-11-10,65.8,51.5,41.7,41.9,37.6,30.8,73,60,41,29.76,29.41,14,3,14,0.00
2014-11-11,52.2,35.5,26.2,41.1,27.1,12.6,84,72,56,30.16,29.53,19,4,19,0.18
2014-11-12,27.9,24.5,21.9,13.0,7.4,1.6,57,48,35,30.29,30.15,12,2,12,0.00
2014-11-13,31.5,24.1,19.8,14.8,10.3,6.1,68,56,42,30.30,30.26,12,2,13,0.00
2014-11-14,33.8,22.5,14.9,14.3,4.5,-8.2,66,48,19,30.35,30.29,4,0,8,0.00
2014-11-15,29.1,20.6,14.5,13.1,6.5,1.4,73,55,35,30.33,30.15,4,0,4,0.00
2014-11-16,28.8,21.0,7.2,22.5,13.3,-4.2,81,72,58,30.15,29.89,8,1,9,0.00
2014-11-17,16.5,9.8,4.1,2.7,-5.1,-12.6,66,51,30,29.99,29.86,24,3,24,0.00
2014-11-18,19.0,12.1,4.3,3.3,-4.1,-18.7,60,49,19,30.08,29.94,14,2,14,0.00
2014-11-19,26.6,20.4,11.7,14.4,6.7,-0.4,62,55,44,30.00,29.73,17,3,17,0.00
2014-11-20,32.0,18.2,10.6,6.7,-2.9,-17.2,64,42,19,30.30,29.98,19,2,19,0.00
2014-11-21,38.5,21.7,4.1,16.5,-5.2,-11.8,53,33,19,30.37,30.08,13,2,13,0.00
2014-11-22,50.5,41.9,31.3,49.4,39.1,16.5,96,90,52,30.08,29.75,13,2,13,0.15
2014-11-23,50.7,48.8,47.1,49.6,47.7,46.0,96,96,96,29.75,29.11,11,3,11,0.61
2014-11-24,47.3,30.7,18.7,46.2,26.5,9.4,96,85,65,29.83,29.08,15,1,15,0.04
2014-11-25,31.5,19.9,12.2,12.6,7.4,2.2,72,59,42,30.13,29.83,6,0,6,0.02
2014-11-26,32.4,21.9,12.6,22.8,13.1,3.3,76,69,64,30.21,30.04,11,1,11,0.00
2014-11-27,34.5,19.8,9.7,16.9,7.1,-6.4,75,59,34,30.38,30.21,10,1,10,0.00
2014-11-28,32.5,23.3,11.8,27.7,13.5,-2.7,82,66,51,30.33,29.76,14,3,14,0.00
2014-11-29,50.7,38.1,29.8,41.7,32.2,26.2,88,80,68,29.76,29.51,11,3,11,0.04
2014-11-30,38.5,30.7,19.4,37.2,24.2,3.3,96,78,49,30.33,29.57,10,2,10,0.00
2014-12-1,20.3,15.3,9.0,2.2,-10.1,-19.9,49,33,19,30.62,30.35,11,3,11,0.00
2014-12-2,33.4,23.9,14.4,19.1,11.7,-0.5,69,59,50,30.46,30.01,7,2,7,0.00
2014-12-3,43.2,27.2,19.6,17.7,9.6,-2.3,70,50,19,30.35,30.01,11,1,11,0.00
2014-12-4,32.2,29.5,20.7,21.2,12.5,-4.5,66,50,23,30.37,30.18,10,2,10,0.00
2014-12-5,38.8,34.2,30.7,33.4,29.1,21.4,89,82,67,30.24,30.11,9,1,9,0.00
2014-12-6,53.2,34.7,23.9,29.4,22.8,12.5,87,64,32,30.60,30.24,15,3,15,0.00
2014-12-7,35.2,28.8,22.5,25.6,19.2,12.4,82,67,57,30.58,30.19,16,3,16,0.00
2014-12-8,36.7,32.9,30.4,35.6,29.8,24.7,96,88,78,30.19,29.94,15,2,15,0.10
2014-12-9,36.9,33.0,30.0,29.1,24.9,22.8,80,72,67,30.37,30.12,12,2,12,0.00
2014-12-10,32.7,28.3,24.8,22.9,18.3,15.0,67,66,64,30.38,30.25,8,1,8,0.00
2014-12-11,25.3,24.2,23.2,15.8,14.7,13.8,68,67,66,30.25,30.23,5,1,5,0.00
2014-12-12,34.7,32.8,24.3,31.7,29.6,18.1,91,88,77,30.31,30.21,4,0,4,0.00
2014-12-13,42.4,37.4,29.5,41.3,35.6,26.1,96,93,87,30.19,30.04,1,0,1,0.00
2014-12-14,48.9,43.9,37.6,47.8,42.8,36.5,96,96,96,30.04,29.93,6,2,6,0.00
2014-12-15,46.6,43.7,42.6,45.5,42.6,41.5,96,96,96,29.91,29.60,11,4,11,0.25
2014-12-16,43.0,33.6,23.2,41.9,28.4,13.8,96,82,67,30.17,29.60,21,5,21,0.06
2014-12-17,23.4,22.6,21.9,14.0,12.9,11.9,67,66,65,30.19,30.16,12,4,12,0.00
2014-12-18,26.1,23.0,16.7,13.8,11.6,6.9,67,61,55,30.28,30.22,1,0,1,0.00
2014-12-19,28.9,26.2,23.7,19.0,15.7,12.7,71,64,60,30.29,30.21,4,0,4,0.00
2014-12-20,32.0,29.3,26.8,25.7,21.5,18.8,79,73,66,30.24,30.15,5,0,5,0.00
2014-12-21,37.4,34.1,31.6,32.5,29.2,25.7,88,82,77,30.16,29.90,13,3,13,0.00
2014-12-22,34.3,34.2,34.2,28.1,27.9,27.6,78,78,77,29.90,29.89,8,3,8,0.00
2014-12-23,42.6,38.7,37.6,41.5,33.9,32.5,96,83,73,29.73,29.45,7,1,7,0.16
2014-12-24,37.8,36.0,34.7,33.8,31.7,28.5,88,85,78,29.70,29.51,14,1,14,0.00
2014-12-25,52.3,37.3,32.2,33.8,27.7,25.1,78,69,46,29.89,29.67,14,3,14,0.00
2014-12-26,53.1,42.8,35.2,36.6,33.4,30.0,83,70,47,29.96,29.88,6,1,6,0.00
2014-12-27,47.7,36.4,23.7,46.6,29.6,13.4,96,76,64,30.12,29.85,10,3,10,0.05
2014-12-28,41.9,27.4,16.9,17.9,10.2,-3.4,69,50,19,30.22,30.11,5,0,5,0.00
2014-12-29,32.2,23.8,15.1,14.0,6.2,-7.0,63,48,21,30.50,30.22,10,3,10,0.00
2014-12-30,15.3,7.0,3.4,-5.1,-13.0,-19.7,44,39,20,30.69,30.51,9,2,9,0.00
2014-12-31,18.3,8.8,-1.8,-6.7,-20.8,-32.1,40,25,19,30.58,30.10,11,3,11,0.00
2015-1-1,32.9,21.6,12.0,9.5,4.4,-4.4,54,48,31,30.12,29.92,7,1,7,0.00
2015-1-2,34.9,25.6,16.0,18.7,11.3,2.9,60,55,46,30.26,30.07,7,0,7,0.00